This is the latest recevied weather packets stored in our database for station/object OE-4057. If no packets are shown the sender has not sent any weather packets the latest 10 day(s).
| Time | Temp. | Humidity | Pressure | Rain* | Wind** | Luminosity | Snow |
|---|---|---|---|---|---|---|---|
| 1787825471 | 23.33° C | 62% | 1015.9 hPa | - | - | - | - |
| 1787823671 | 22.78° C | 65% | 1016.1 hPa | - | - | - | - |
| 1787821871 | 21.11° C | 68% | 1016.4 hPa | - | - | - | - |
| 1787820071 | 20.56° C | 70% | 1016.7 hPa | - | - | - | - |
| 1787818271 | 19.44° C | 71% | 1016.9 hPa | - | - | - | - |
| 1787816470 | 18.33° C | 75% | 1018.2 hPa | - | - | - | - |
| 1787814671 | 17.22° C | 80% | 1018.5 hPa | - | - | - | - |
| 1787812871 | 16.11° C | 84% | 1018.8 hPa | - | - | - | - |
| 1787811310 | 14.44° C | 89% | 1019.2 hPa | - | - | - | - |
| 1787809271 | 14.44° C | 90% | 1019.2 hPa | - | - | - | - |
| 1787807471 | 14.44° C | 90% | 1019.2 hPa | - | - | - | - |
| 1787805670 | 14.44° C | 90% | 1019.3 hPa | - | - | - | - |
| 1787803871 | 14.44° C | 91% | 1019.2 hPa | - | - | - | - |
| 1787800271 | 14.44° C | 90% | 1019.1 hPa | - | - | - | - |
| 1787798470 | 15.56° C | 87% | 1019 hPa | - | - | - | - |
| 1787796671 | 15.56° C | 88% | 1017.9 hPa | - | - | - | - |
| 1787794871 | 15.56° C | 88% | 1017.9 hPa | - | - | - | - |
| 1787793071 | 15.56° C | 86% | 1017.8 hPa | - | - | - | - |
| 1787791271 | 16.11° C | 87% | 1017.7 hPa | - | - | - | - |
| 1787789470 | 16.67° C | 86% | 1018.7 hPa | - | - | - | - |
| 1787787671 | 16.67° C | 85% | 1018.7 hPa | - | - | - | - |
| 1787784071 | 17.22° C | 83% | 1017.4 hPa | - | - | - | - |
| 1787782272 | 17.78° C | 80% | 1017.3 hPa | - | - | - | - |
| 1787780472 | 18.33° C | 80% | 1017.2 hPa | - | - | - | - |
| 1787778671 | 18.89° C | 76% | 1018.1 hPa | - | - | - | - |
* Rain since midnight (hover to see other rain measurements)
** Current wind speed in m/s (hover to see current wind gust speed)